createdAt,value
2018-04-14T00:02:06.708Z,10.25
2018-04-14T00:05:10.075Z,10.23
2018-04-14T00:08:13.364Z,10.25
2018-04-14T00:11:16.597Z,10.22
2018-04-14T00:14:19.968Z,10.18
2018-04-14T00:17:23.211Z,10.21
2018-04-14T00:20:26.500Z,10.16
2018-04-14T00:23:29.855Z,10.11
2018-04-14T00:26:33.160Z,10.08
2018-04-14T00:29:36.441Z,9.97
2018-04-14T00:32:39.748Z,9.99
2018-04-14T00:35:43.053Z,9.95
2018-04-14T00:38:46.334Z,9.98
2018-04-14T00:41:49.636Z,9.97
2018-04-14T00:44:53.023Z,9.94
2018-04-14T00:47:56.263Z,9.92
2018-04-14T00:50:59.523Z,9.89
2018-04-14T00:54:02.824Z,9.83
2018-04-14T00:57:06.148Z,9.80
2018-04-14T01:00:09.339Z,9.75
2018-04-14T01:03:12.461Z,9.79
2018-04-14T01:06:16.151Z,9.71
2018-04-14T01:09:19.352Z,9.67
2018-04-14T01:12:22.742Z,9.58
2018-04-14T01:15:26.379Z,9.54
2018-04-14T01:18:29.616Z,9.43
2018-04-14T01:21:33.839Z,9.44
2018-04-14T01:24:37.136Z,9.43
2018-04-14T01:27:40.444Z,9.38
2018-04-14T01:30:43.649Z,9.34
2018-04-14T01:33:47.018Z,9.28
2018-04-14T01:36:50.216Z,9.30
2018-04-14T01:39:53.547Z,9.28
2018-04-14T01:42:56.919Z,9.25
2018-04-14T01:46:00.225Z,9.16
2018-04-14T01:49:03.528Z,9.13
2018-04-14T01:52:06.881Z,9.12
2018-04-14T01:55:11.168Z,9.11
2018-04-14T01:58:14.455Z,9.15
2018-04-14T02:01:17.720Z,9.07
2018-04-14T02:04:20.958Z,9.03
2018-04-14T02:07:24.352Z,8.95
2018-04-14T02:10:27.629Z,8.89
2018-04-14T02:13:30.940Z,8.88
2018-04-14T02:16:34.347Z,8.82
2018-04-14T02:19:37.550Z,8.76
2018-04-14T02:22:46.311Z,8.76
2018-04-14T02:25:49.572Z,8.80
2018-04-14T02:28:52.827Z,8.82
2018-04-14T02:31:56.163Z,8.75
2018-04-14T02:34:59.354Z,8.72
2018-04-14T02:38:02.523Z,8.62
2018-04-14T02:41:05.850Z,8.62
2018-04-14T02:44:09.212Z,8.68
2018-04-14T02:47:12.427Z,8.63
2018-04-14T02:50:15.648Z,8.64
2018-04-14T02:53:19.047Z,8.56
2018-04-14T02:56:22.312Z,8.53
2018-04-14T02:59:25.733Z,8.37
2018-04-14T03:02:28.877Z,8.43
2018-04-14T03:05:32.196Z,8.46
2018-04-14T03:08:35.704Z,8.34
2018-04-14T03:11:39.097Z,8.41
2018-04-14T03:14:42.403Z,8.30
2018-04-14T03:17:45.632Z,8.33
2018-04-14T03:20:48.932Z,8.26
2018-04-14T03:23:52.296Z,8.23
2018-04-14T03:26:55.656Z,8.21
2018-04-14T03:29:58.980Z,8.17
2018-04-14T03:33:02.292Z,8.07
2018-04-14T03:36:05.604Z,7.99
2018-04-14T03:39:08.967Z,7.96
2018-04-14T03:42:12.280Z,7.96
2018-04-14T03:45:15.577Z,7.90
2018-04-14T03:48:18.808Z,7.91
2018-04-14T03:51:22.187Z,7.88
2018-04-14T03:54:25.642Z,7.92
2018-04-14T03:57:28.901Z,7.92
2018-04-14T04:00:32.195Z,7.92
2018-04-14T04:03:35.564Z,7.94
2018-04-14T04:06:38.855Z,7.90
2018-04-14T04:09:42.095Z,7.89
2018-04-14T04:12:45.465Z,7.81
2018-04-14T04:15:48.680Z,7.72
2018-04-14T04:20:04.157Z,7.75
2018-04-14T04:23:18.831Z,7.74
2018-04-14T04:26:22.103Z,7.72
2018-04-14T04:29:25.533Z,7.65
2018-04-14T04:32:28.900Z,7.63
2018-04-14T04:35:32.208Z,7.64
2018-04-14T04:38:35.535Z,7.60
2018-04-14T04:41:38.832Z,7.60
2018-04-14T04:44:42.091Z,7.58
2018-04-14T04:47:45.348Z,7.63
2018-04-14T04:50:48.608Z,7.60
2018-04-14T04:53:51.900Z,7.62
2018-04-14T04:56:55.271Z,7.62
2018-04-14T04:59:58.540Z,7.60
2018-04-14T05:03:01.883Z,7.61
2018-04-14T05:06:05.186Z,7.72
2018-04-14T05:09:08.500Z,7.69
2018-04-14T05:12:11.779Z,7.73
2018-04-14T05:15:15.094Z,7.79
2018-04-14T05:18:18.401Z,7.81
2018-04-14T05:21:21.852Z,7.79
2018-04-14T05:24:25.180Z,7.80
2018-04-14T05:27:28.516Z,7.83
2018-04-14T05:30:31.877Z,7.85
2018-04-14T05:33:35.108Z,7.91
2018-04-14T05:36:38.577Z,7.98
2018-04-14T05:39:41.771Z,8.05
2018-04-14T05:42:45.105Z,8.14
2018-04-14T05:45:48.335Z,8.20
2018-04-14T05:48:51.602Z,8.27
2018-04-14T05:51:54.913Z,8.36
2018-04-14T05:54:58.164Z,8.48
2018-04-14T05:58:01.545Z,8.58
2018-04-14T06:01:04.841Z,8.74
2018-04-14T06:04:08.168Z,8.77
2018-04-14T06:07:11.715Z,8.89
2018-04-14T06:10:15.091Z,9.05
2018-04-14T06:13:18.264Z,9.09
2018-04-14T06:16:22.760Z,9.16
2018-04-14T06:19:26.180Z,9.21
2018-04-14T06:22:29.464Z,9.33
2018-04-14T06:25:32.823Z,9.42
2018-04-14T06:28:36.128Z,9.57
2018-04-14T06:31:39.536Z,9.70
2018-04-14T06:34:42.960Z,9.80
2018-04-14T06:37:46.176Z,9.98
2018-04-14T06:40:49.371Z,9.98
2018-04-14T06:43:52.670Z,10.05
2018-04-14T06:46:56.729Z,10.19
2018-04-14T06:50:00.082Z,10.34
2018-04-14T06:53:03.228Z,10.51
2018-04-14T06:56:06.467Z,10.55
2018-04-14T06:59:09.781Z,10.66
2018-04-14T07:02:13.073Z,10.74
2018-04-14T07:05:16.469Z,10.88
2018-04-14T07:08:19.788Z,10.96
2018-04-14T07:11:23.038Z,11.06
2018-04-14T07:14:26.472Z,11.21
2018-04-14T07:17:29.936Z,11.38
2018-04-14T07:20:33.310Z,11.57
2018-04-14T07:23:36.444Z,11.79
2018-04-14T07:26:39.829Z,11.90
2018-04-14T07:29:43.113Z,12.03
2018-04-14T07:32:47.327Z,12.17
2018-04-14T07:35:50.628Z,12.36
2018-04-14T07:38:53.936Z,12.47
2018-04-14T07:41:57.273Z,12.60
2018-04-14T07:45:00.580Z,12.82
2018-04-14T07:48:03.845Z,12.99
2018-04-14T07:51:07.126Z,13.16
2018-04-14T07:54:10.236Z,13.27
2018-04-14T07:57:13.607Z,13.40
2018-04-14T08:00:16.961Z,13.48
2018-04-14T08:03:20.301Z,13.58
2018-04-14T08:06:23.656Z,13.76
2018-04-14T08:09:27.031Z,13.91
2018-04-14T08:12:30.256Z,14.03
2018-04-14T08:15:33.632Z,14.23
2018-04-14T08:18:36.827Z,14.24
2018-04-14T08:21:40.136Z,14.34
2018-04-14T08:24:43.312Z,14.32
2018-04-14T08:27:46.578Z,14.23
2018-04-14T08:30:49.907Z,14.49
2018-04-14T08:33:53.255Z,14.65
2018-04-14T08:36:57.164Z,14.80
2018-04-14T08:40:00.980Z,14.92
2018-04-14T08:43:04.217Z,14.92
2018-04-14T08:46:07.617Z,15.07
2018-04-14T08:49:10.886Z,15.25
2018-04-14T08:52:14.094Z,15.08
2018-04-14T08:55:17.389Z,15.45
2018-04-14T08:58:20.701Z,15.56
2018-04-14T09:01:23.979Z,15.63
2018-04-14T09:04:27.454Z,15.75
2018-04-14T09:07:30.851Z,15.70
2018-04-14T09:10:34.118Z,15.89
2018-04-14T09:13:37.322Z,15.69
2018-04-14T09:16:40.871Z,15.67
2018-04-14T09:19:44.169Z,15.87
2018-04-14T09:22:47.492Z,16.14
2018-04-14T09:25:50.757Z,16.19
2018-04-14T09:28:54.057Z,16.19
2018-04-14T09:31:57.497Z,16.36
2018-04-14T09:35:00.816Z,16.62
2018-04-14T09:38:04.263Z,16.88
2018-04-14T09:41:07.586Z,16.91
2018-04-14T09:44:11.064Z,16.98
2018-04-14T09:47:14.365Z,17.16
2018-04-14T09:50:17.657Z,17.29
2018-04-14T09:53:21.125Z,17.61
2018-04-14T09:56:25.166Z,17.71
2018-04-14T09:59:30.355Z,17.90
2018-04-14T10:02:37.933Z,17.60
2018-04-14T10:05:42.657Z,17.89
2018-04-14T10:08:45.959Z,17.76
2018-04-14T10:11:49.356Z,18.06
2018-04-14T10:14:52.915Z,17.83
2018-04-14T10:17:56.288Z,18.10
2018-04-14T10:20:59.687Z,17.87
2018-04-14T10:24:03.091Z,17.94
2018-04-14T10:27:06.369Z,18.37
2018-04-14T10:30:09.671Z,18.52
2018-04-14T10:33:13.156Z,17.87
2018-04-14T10:36:16.458Z,18.29
2018-04-14T10:39:19.835Z,18.50
2018-04-14T10:42:23.081Z,18.70
2018-04-14T10:45:26.288Z,18.62
2018-04-14T10:48:29.551Z,18.74
2018-04-14T10:51:32.973Z,18.64
2018-04-14T10:54:36.358Z,18.67
2018-04-14T10:57:39.666Z,18.82
2018-04-14T11:00:43.148Z,18.87
2018-04-14T11:03:47.562Z,19.28
2018-04-14T11:06:50.828Z,19.33
2018-04-14T11:09:54.160Z,19.20
2018-04-14T11:12:57.412Z,19.23
2018-04-14T11:16:00.801Z,19.33
2018-04-14T11:19:04.186Z,19.35
2018-04-14T11:22:07.592Z,18.83
2018-04-14T11:25:10.864Z,19.05
2018-04-14T11:28:14.182Z,19.29
2018-04-14T11:31:17.613Z,19.53
2018-04-14T11:34:20.905Z,19.84
2018-04-14T11:37:24.243Z,20.00
2018-04-14T11:40:27.564Z,19.91
2018-04-14T11:43:31.220Z,20.24
2018-04-14T11:46:34.408Z,20.43
2018-04-14T11:49:38.047Z,20.34
2018-04-14T11:52:41.420Z,20.43
2018-04-14T11:55:44.762Z,20.47
2018-04-14T11:58:48.080Z,20.42
2018-04-14T12:01:51.467Z,20.60
2018-04-14T12:04:54.761Z,20.50
2018-04-14T12:07:58.181Z,20.57
2018-04-14T12:11:01.536Z,20.88
2018-04-14T12:14:06.662Z,20.79
2018-04-14T12:17:10.351Z,20.92
2018-04-14T12:20:13.667Z,20.72
2018-04-14T12:23:17.019Z,20.63
2018-04-14T12:26:20.224Z,20.86
2018-04-14T12:29:23.385Z,20.87
2018-04-14T12:32:26.689Z,21.02
2018-04-14T12:35:31.017Z,20.90
2018-04-14T12:38:34.344Z,20.95
2018-04-14T12:41:37.737Z,21.18
2018-04-14T12:44:41.025Z,21.09
2018-04-14T12:47:44.176Z,21.35
2018-04-14T12:50:47.668Z,21.21
2018-04-14T12:53:51.027Z,21.21
2018-04-14T12:56:54.305Z,21.64
2018-04-14T12:59:57.720Z,21.79
2018-04-14T13:03:00.940Z,22.10
2018-04-14T13:06:04.204Z,21.97
2018-04-14T13:09:07.573Z,22.10
2018-04-14T13:12:10.940Z,22.30
2018-04-14T13:15:14.206Z,21.97
2018-04-14T13:18:17.392Z,22.36
2018-04-14T13:21:20.691Z,22.10
2018-04-14T13:24:23.981Z,22.08
2018-04-14T13:27:27.396Z,22.15
2018-04-14T13:30:30.808Z,22.55
2018-04-14T13:33:34.032Z,21.86
2018-04-14T13:36:37.585Z,22.10
2018-04-14T13:39:41.024Z,22.05
2018-04-14T13:42:44.379Z,21.88
2018-04-14T13:45:47.786Z,22.06
2018-04-14T13:48:51.113Z,22.23
2018-04-14T13:51:54.400Z,22.18
2018-04-14T13:54:57.695Z,22.27
2018-04-14T13:58:01.068Z,22.50
2018-04-14T14:01:04.387Z,22.81
2018-04-14T14:04:07.584Z,22.86
2018-04-14T14:07:10.987Z,22.68
2018-04-14T14:10:14.146Z,22.80
2018-04-14T14:13:17.461Z,22.84
2018-04-14T14:16:20.769Z,22.42
2018-04-14T14:19:24.108Z,22.57
2018-04-14T14:22:27.471Z,23.24
2018-04-14T14:25:30.852Z,23.59
2018-04-14T14:28:34.259Z,23.87
2018-04-14T14:31:43.895Z,24.01
2018-04-14T14:34:47.388Z,24.06
2018-04-14T14:37:50.690Z,23.44
2018-04-14T14:40:54.308Z,23.84
2018-04-14T14:43:57.587Z,23.88
2018-04-14T14:47:01.159Z,24.16
2018-04-14T14:50:08.647Z,24.02
2018-04-14T14:53:12.024Z,23.60
2018-04-14T14:56:15.295Z,23.97
2018-04-14T14:59:18.613Z,24.09
2018-04-14T15:02:21.890Z,23.97
2018-04-14T15:05:25.279Z,23.26
2018-04-14T15:08:29.691Z,22.93
2018-04-14T15:11:33.072Z,22.70
2018-04-14T15:14:36.431Z,22.63
2018-04-14T15:17:39.765Z,22.57
2018-04-14T15:20:43.105Z,22.66
2018-04-14T15:23:46.413Z,22.77
2018-04-14T15:26:49.812Z,22.65
2018-04-14T15:29:53.080Z,22.90
2018-04-14T15:32:56.336Z,22.75
2018-04-14T15:35:59.800Z,22.52
2018-04-14T15:39:03.084Z,22.44
2018-04-14T15:42:06.522Z,22.47
2018-04-14T15:45:09.937Z,22.49
2018-04-14T15:48:13.230Z,22.62
2018-04-14T15:51:16.624Z,22.65
2018-04-14T15:54:19.945Z,22.56
2018-04-14T15:57:23.319Z,22.51
2018-04-14T16:00:26.637Z,22.38
2018-04-14T16:03:30.016Z,22.28
2018-04-14T16:06:33.552Z,22.26
2018-04-14T16:09:36.881Z,22.29
2018-04-14T16:12:40.293Z,22.42
2018-04-14T16:15:43.661Z,22.56
2018-04-14T16:18:46.976Z,22.29
2018-04-14T16:21:50.422Z,21.89
2018-04-14T16:24:54.220Z,21.71
2018-04-14T16:27:57.625Z,21.58
2018-04-14T16:31:00.821Z,21.43
2018-04-14T16:34:04.290Z,21.26
2018-04-14T16:37:07.848Z,21.18
2018-04-14T16:40:11.121Z,21.19
2018-04-14T16:43:14.527Z,21.10
2018-04-14T16:46:18.179Z,21.15
2018-04-14T16:49:21.562Z,21.16
2018-04-14T16:52:24.861Z,21.09
2018-04-14T16:55:28.554Z,21.08
2018-04-14T16:58:31.871Z,21.12
2018-04-14T17:01:35.176Z,21.10
2018-04-14T17:04:38.485Z,21.11
2018-04-14T17:07:41.676Z,21.11
2018-04-14T17:10:45.046Z,21.10
2018-04-14T17:13:48.286Z,21.00
2018-04-14T17:16:51.564Z,20.92
2018-04-14T17:19:54.944Z,20.86
2018-04-14T17:22:58.263Z,20.78
2018-04-14T17:26:01.601Z,20.77
2018-04-14T17:29:04.839Z,20.74
2018-04-14T17:32:08.163Z,20.70
2018-04-14T17:35:11.440Z,20.64
2018-04-14T17:41:17.133Z,20.60
2018-04-14T17:44:20.477Z,20.50
2018-04-14T17:47:23.729Z,20.35
2018-04-14T17:50:27.129Z,20.27
2018-04-14T17:53:30.228Z,20.19
2018-04-14T17:56:33.510Z,20.10
2018-04-14T17:59:36.914Z,20.01
2018-04-14T18:02:40.208Z,19.89
2018-04-14T18:05:43.455Z,19.81
2018-04-14T18:08:46.796Z,19.73
2018-04-14T18:11:50.085Z,19.70
2018-04-14T18:14:53.328Z,19.63
2018-04-14T18:17:56.526Z,19.57
2018-04-14T18:20:59.883Z,19.49
2018-04-14T18:24:03.188Z,19.39
2018-04-14T18:27:06.489Z,19.24
2018-04-14T18:30:09.759Z,19.01
2018-04-14T18:33:13.084Z,18.77
2018-04-14T18:36:16.304Z,18.61
2018-04-14T18:39:19.688Z,18.51
2018-04-14T18:42:23.003Z,18.32
2018-04-14T18:45:26.506Z,18.26
2018-04-14T18:48:29.901Z,18.12
2018-04-14T18:51:33.275Z,17.94
2018-04-14T18:54:36.515Z,17.72
2018-04-14T18:57:39.895Z,17.55
2018-04-14T19:00:43.202Z,17.46
2018-04-14T19:03:47.475Z,17.40
2018-04-14T19:06:50.922Z,17.27
2018-04-14T19:09:54.245Z,17.17
2018-04-14T19:12:57.654Z,17.08
2018-04-14T19:16:00.913Z,16.99
2018-04-14T19:19:04.069Z,16.90
2018-04-14T19:22:07.356Z,16.82
2018-04-14T19:25:10.748Z,16.71
2018-04-14T19:28:14.074Z,16.62
2018-04-14T19:31:17.350Z,16.57
2018-04-14T19:34:20.685Z,16.49
2018-04-14T19:37:24.101Z,16.39
2018-04-14T19:40:27.475Z,16.25
2018-04-14T19:43:30.789Z,16.22
2018-04-14T19:46:34.264Z,16.19
2018-04-14T19:49:37.532Z,16.11
2018-04-14T19:52:40.880Z,16.07
2018-04-14T19:55:44.279Z,15.96
2018-04-14T19:58:47.448Z,15.92
2018-04-14T20:01:52.744Z,15.75
2018-04-14T20:04:56.080Z,15.66
2018-04-14T20:07:59.381Z,15.62
2018-04-14T20:11:02.620Z,15.61
2018-04-14T20:14:05.913Z,15.53
2018-04-14T20:17:09.329Z,15.46
2018-04-14T20:20:12.580Z,15.51
2018-04-14T20:23:15.872Z,15.44
2018-04-14T20:26:19.170Z,15.38
2018-04-14T20:29:22.470Z,15.34
2018-04-14T20:32:25.813Z,15.29
2018-04-14T20:35:29.298Z,15.22
2018-04-14T20:38:32.605Z,15.17
2018-04-14T20:41:35.916Z,15.13
2018-04-14T20:44:40.354Z,15.14
2018-04-14T20:47:43.732Z,15.21
2018-04-14T20:50:47.020Z,15.21
2018-04-14T20:53:50.473Z,15.16
2018-04-14T20:56:53.844Z,15.06
2018-04-14T20:59:57.170Z,15.05
2018-04-14T21:04:03.963Z,15.08
2018-04-14T21:07:07.357Z,15.07
2018-04-14T21:10:10.719Z,15.10
2018-04-14T21:13:14.027Z,15.09
2018-04-14T21:16:17.343Z,15.13
2018-04-14T21:19:20.873Z,15.13
2018-04-14T21:22:24.208Z,15.20
2018-04-14T21:25:27.536Z,15.25
2018-04-14T21:28:30.965Z,15.29
2018-04-14T21:31:34.269Z,15.39
2018-04-14T21:34:37.682Z,15.43
2018-04-14T21:37:40.843Z,15.51
2018-04-14T21:40:44.193Z,15.55
2018-04-14T21:43:47.569Z,15.61
2018-04-14T21:46:50.776Z,15.59
2018-04-14T21:49:56.064Z,15.67
2018-04-14T21:53:01.459Z,15.68
2018-04-14T21:56:04.810Z,15.71
2018-04-14T21:59:08.064Z,15.70
2018-04-14T22:02:11.484Z,15.71
2018-04-14T22:05:15.163Z,15.68
2018-04-14T22:08:19.680Z,15.71
2018-04-14T22:11:22.993Z,15.66
2018-04-14T22:14:33.160Z,15.64
2018-04-14T22:17:36.348Z,15.66
2018-04-14T22:20:39.614Z,15.61
2018-04-14T22:23:42.908Z,15.61
2018-04-14T22:26:46.278Z,15.62
2018-04-14T22:29:49.509Z,15.61
2018-04-14T22:32:52.927Z,15.54
2018-04-14T22:35:56.226Z,15.54
2018-04-14T22:38:59.420Z,15.46
2018-04-14T22:42:02.804Z,15.41
2018-04-14T22:45:06.150Z,15.25
2018-04-14T22:48:09.302Z,15.01
2018-04-14T22:51:12.705Z,14.87
2018-04-14T22:54:15.935Z,14.84
2018-04-14T22:57:19.191Z,14.78
2018-04-14T23:00:22.527Z,14.79
2018-04-14T23:03:25.928Z,14.82
2018-04-14T23:06:29.323Z,14.83
2018-04-14T23:09:32.694Z,14.90
2018-04-14T23:12:35.985Z,14.91
2018-04-14T23:15:39.195Z,14.88
2018-04-14T23:18:42.481Z,14.85
2018-04-14T23:21:45.934Z,14.76
2018-04-14T23:24:49.272Z,14.61
2018-04-14T23:27:52.587Z,14.52
2018-04-14T23:30:55.979Z,14.50
2018-04-14T23:33:59.298Z,14.48
2018-04-14T23:37:02.568Z,14.46
2018-04-14T23:40:05.915Z,14.37
2018-04-14T23:43:10.064Z,14.33
2018-04-14T23:46:13.302Z,14.24
2018-04-14T23:49:16.622Z,14.18
2018-04-14T23:52:19.983Z,14.23
2018-04-14T23:55:23.225Z,14.24
2018-04-14T23:58:26.572Z,14.18
